createdAt,value
2022-08-28T00:00:49.643Z,15.0
2022-08-28T00:02:49.645Z,15.0
2022-08-28T00:04:49.653Z,15.8
2022-08-28T00:06:49.691Z,15.8
2022-08-28T00:08:49.932Z,16.2
2022-08-28T00:10:50.028Z,16.1
2022-08-28T00:12:50.091Z,16.5
2022-08-28T00:14:50.230Z,16.1
2022-08-28T00:16:49.683Z,16.1
2022-08-28T00:18:49.749Z,16.7
2022-08-28T00:20:49.609Z,15.6
2022-08-28T00:22:50.442Z,16.4
2022-08-28T00:24:49.709Z,16.4
2022-08-28T00:26:49.621Z,16.4
2022-08-28T00:28:49.715Z,18.0
2022-08-28T00:30:49.793Z,16.3
2022-08-28T00:32:49.880Z,16.3
2022-08-28T00:34:50.403Z,16.3
2022-08-28T00:36:49.905Z,16.5
2022-08-28T00:38:49.596Z,16.0
2022-08-28T00:40:49.802Z,15.4
2022-08-28T00:42:50.003Z,15.4
2022-08-28T00:44:49.787Z,15.8
2022-08-28T00:46:50.065Z,15.6
2022-08-28T00:48:50.437Z,15.5
2022-08-28T00:50:50.234Z,16.5
2022-08-28T00:52:50.175Z,16.5
2022-08-28T00:54:53.527Z,17.1
2022-08-28T00:56:50.053Z,15.3
2022-08-28T00:58:50.058Z,16.9
2022-08-28T01:00:49.826Z,16.9
2022-08-28T01:02:49.955Z,16.1
2022-08-28T01:04:49.765Z,16.1
2022-08-28T01:06:49.894Z,15.9
2022-08-28T01:08:50.496Z,16.0
2022-08-28T01:10:49.586Z,16.0
2022-08-28T01:12:49.611Z,15.5
2022-08-28T01:14:49.746Z,15.5
2022-08-28T01:16:49.972Z,15.6
2022-08-28T01:18:49.910Z,16.5
2022-08-28T01:20:49.716Z,15.8
2022-08-28T01:22:50.512Z,15.8
2022-08-28T01:24:50.506Z,15.0
2022-08-28T01:26:50.292Z,15.5
2022-08-28T01:28:50.229Z,15.3
2022-08-28T01:30:50.164Z,15.5
2022-08-28T01:32:50.416Z,15.5
2022-08-28T01:34:49.563Z,15.0
2022-08-28T01:36:49.752Z,15.0
2022-08-28T01:38:49.595Z,15.2
2022-08-28T01:40:50.423Z,15.2
2022-08-28T01:42:50.361Z,16.5
2022-08-28T01:44:50.229Z,16.5
2022-08-28T01:46:50.441Z,15.2
2022-08-28T01:48:49.723Z,15.2
2022-08-28T01:50:50.518Z,15.4
2022-08-28T01:52:50.517Z,16.3
2022-08-28T01:54:50.326Z,16.4
2022-08-28T01:56:49.690Z,16.1
2022-08-28T01:58:49.610Z,16.1
2022-08-28T02:00:49.622Z,16.9
2022-08-28T02:02:50.471Z,16.9
2022-08-28T02:04:49.854Z,17.8
2022-08-28T02:06:50.420Z,16.4
2022-08-28T02:08:49.853Z,16.4
2022-08-28T02:10:49.727Z,15.0
2022-08-28T02:12:49.553Z,15.0
2022-08-28T02:14:49.856Z,15.0
2022-08-28T02:16:50.141Z,15.7
2022-08-28T02:18:50.155Z,15.7
2022-08-28T02:20:50.100Z,16.5
2022-08-28T02:22:49.582Z,16.1
2022-08-28T02:24:49.539Z,16.2
2022-08-28T02:26:49.781Z,16.2
2022-08-28T02:28:49.888Z,17.9
2022-08-28T02:30:49.718Z,15.8
2022-08-28T02:32:50.312Z,16.1
2022-08-28T02:34:49.649Z,16.1
2022-08-28T02:36:49.991Z,16.4
2022-08-28T02:38:51.927Z,16.4
2022-08-28T02:40:50.130Z,16.5
2022-08-28T02:42:50.031Z,16.1
2022-08-28T02:44:50.045Z,15.8
2022-08-28T02:46:50.251Z,15.8
2022-08-28T02:48:50.062Z,15.6
2022-08-28T02:50:49.883Z,16.1
2022-08-28T02:52:49.767Z,17.8
2022-08-28T02:54:49.658Z,15.2
2022-08-28T02:56:49.846Z,15.2
2022-08-28T02:58:50.044Z,15.8
2022-08-28T03:00:50.070Z,15.8
2022-08-28T03:02:50.195Z,15.8
2022-08-28T03:04:50.098Z,15.6
2022-08-28T03:06:49.937Z,15.6
2022-08-28T03:08:49.749Z,17.1
2022-08-28T03:10:49.765Z,16.0
2022-08-28T03:12:49.998Z,15.5
2022-08-28T03:14:49.939Z,16.2
2022-08-28T03:16:50.465Z,16.2
2022-08-28T03:18:49.809Z,17.6
2022-08-28T03:20:50.147Z,16.1
2022-08-28T03:22:50.172Z,16.3
2022-08-28T03:24:50.307Z,17.2
2022-08-28T03:26:50.402Z,17.2
2022-08-28T03:28:50.429Z,16.0
2022-08-28T03:30:50.477Z,15.9
2022-08-28T03:32:49.758Z,15.9
2022-08-28T03:34:50.366Z,15.9
2022-08-28T03:36:49.673Z,15.8
2022-08-28T03:38:49.540Z,16.2
2022-08-28T03:40:50.370Z,15.5
2022-08-28T03:42:53.098Z,15.3
2022-08-28T03:44:49.633Z,15.3
2022-08-28T03:46:49.805Z,15.9
2022-08-28T03:48:50.942Z,14.8
2022-08-28T03:50:50.285Z,14.8
2022-08-28T03:52:49.814Z,14.9
2022-08-28T03:54:49.831Z,14.9
2022-08-28T03:56:50.041Z,15.1
2022-08-28T03:58:50.024Z,15.1
2022-08-28T04:00:50.408Z,14.9
2022-08-28T04:02:50.226Z,16.0
2022-08-28T04:04:49.902Z,14.7
2022-08-28T04:06:50.081Z,14.7
2022-08-28T04:08:50.250Z,14.4
2022-08-28T04:10:50.034Z,14.8
2022-08-28T04:12:50.032Z,15.3
2022-08-28T04:14:50.046Z,15.1
2022-08-28T04:16:50.453Z,15.1
2022-08-28T04:18:49.618Z,15.1
2022-08-28T04:20:49.607Z,14.4
2022-08-28T04:22:52.999Z,14.4
2022-08-28T04:24:50.077Z,14.5
2022-08-28T04:26:49.735Z,14.3
2022-08-28T04:28:49.758Z,14.8
2022-08-28T04:30:50.087Z,14.6
2022-08-28T04:32:49.939Z,14.7
2022-08-28T04:34:50.537Z,14.7
2022-08-28T04:36:49.852Z,15.2
2022-08-28T04:38:49.927Z,15.5
2022-08-28T04:40:49.771Z,15.8
2022-08-28T04:42:49.854Z,15.8
2022-08-28T04:44:49.946Z,15.6
2022-08-28T04:46:50.086Z,14.8
2022-08-28T04:48:50.016Z,14.9
2022-08-28T04:50:50.079Z,15.0
2022-08-28T04:52:50.258Z,15.0
2022-08-28T04:54:50.388Z,15.3
2022-08-28T04:56:49.685Z,15.3
2022-08-28T04:58:49.742Z,14.4
2022-08-28T05:00:49.962Z,14.4
2022-08-28T05:02:50.057Z,14.6
2022-08-28T05:04:50.492Z,14.1
2022-08-28T05:06:49.651Z,13.8
2022-08-28T05:08:49.630Z,15.7
2022-08-28T05:10:49.750Z,15.7
2022-08-28T05:12:49.672Z,14.7
2022-08-28T05:14:49.745Z,13.7
2022-08-28T05:16:49.997Z,14.2
2022-08-28T05:18:50.084Z,14.3
2022-08-28T05:20:50.051Z,14.3
2022-08-28T05:22:50.008Z,14.5
2022-08-28T05:24:49.795Z,14.5
2022-08-28T05:26:50.099Z,14.2
2022-08-28T05:28:50.545Z,14.4
2022-08-28T05:30:50.430Z,13.7
2022-08-28T05:32:50.331Z,13.7
2022-08-28T05:34:49.579Z,13.1
2022-08-28T05:36:49.932Z,13.6
2022-08-28T05:38:49.964Z,13.8
2022-08-28T05:40:50.462Z,12.7
2022-08-28T05:42:50.368Z,12.7
2022-08-28T05:44:50.333Z,13.2
2022-08-28T05:46:49.947Z,12.2
2022-08-28T05:48:49.849Z,13.5
2022-08-28T05:50:49.709Z,13.2
2022-08-28T05:52:49.702Z,13.2
2022-08-28T05:54:49.753Z,13.8
2022-08-28T05:56:50.107Z,13.1
2022-08-28T05:58:50.097Z,12.9
2022-08-28T06:00:49.915Z,12.9
2022-08-28T06:02:49.688Z,12.6
2022-08-28T06:04:49.572Z,12.7
2022-08-28T06:06:50.112Z,11.5
2022-08-28T06:08:56.309Z,11.5
2022-08-28T06:10:50.987Z,12.3
2022-08-28T06:12:50.076Z,12.3
2022-08-28T06:14:49.925Z,11.4
2022-08-28T06:16:49.735Z,12.1
2022-08-28T06:18:50.449Z,12.1
2022-08-28T06:20:49.711Z,12.3
2022-08-28T06:22:50.231Z,12.3
2022-08-28T06:24:50.160Z,11.6
2022-08-28T06:26:50.338Z,11.6
2022-08-28T06:28:50.253Z,10.7
2022-08-28T06:31:09.152Z,12.0
2022-08-28T06:32:50.291Z,12.1
2022-08-28T06:34:49.637Z,12.1
2022-08-28T06:36:53.269Z,10.8
2022-08-28T06:38:49.583Z,11.7
2022-08-28T06:40:50.426Z,11.7
2022-08-28T06:42:49.649Z,11.3
2022-08-28T06:44:49.602Z,10.3
2022-08-28T06:46:49.796Z,12.4
2022-08-28T06:48:49.706Z,12.4
2022-08-28T06:50:49.618Z,10.6
2022-08-28T06:52:49.563Z,13.4
2022-08-28T06:54:55.411Z,10.2
2022-08-28T06:56:50.336Z,10.6
2022-08-28T06:58:50.505Z,10.6
2022-08-28T07:00:55.970Z,10.2
2022-08-28T07:02:50.163Z,10.8
2022-08-28T07:04:50.114Z,10.8
2022-08-28T07:06:53.000Z,11.2
2022-08-28T07:08:50.483Z,9.8
2022-08-28T07:10:50.434Z,9.8
2022-08-28T07:12:50.321Z,10.7
2022-08-28T07:14:50.366Z,10.5
2022-08-28T07:16:50.541Z,10.1
2022-08-28T07:18:49.865Z,10.1
2022-08-28T07:20:49.807Z,9.9
2022-08-28T07:22:50.010Z,10.2
2022-08-28T07:24:49.664Z,10.2
2022-08-28T07:26:50.116Z,10.2
2022-08-28T07:28:50.110Z,10.0
2022-08-28T07:30:49.926Z,10.0
2022-08-28T07:32:50.121Z,10.7
2022-08-28T07:34:50.538Z,11.7
2022-08-28T07:36:49.771Z,11.7
2022-08-28T07:38:49.907Z,10.5
2022-08-28T07:40:49.819Z,9.8
2022-08-28T07:42:49.639Z,9.8
2022-08-28T07:44:50.419Z,12.3
2022-08-28T07:46:49.778Z,10.0
2022-08-28T07:48:49.746Z,9.8
2022-08-28T07:50:49.626Z,9.2
2022-08-28T07:52:50.382Z,10.4
2022-08-28T07:54:50.381Z,10.4
2022-08-28T07:56:49.740Z,10.0
2022-08-28T07:58:49.707Z,12.4
2022-08-28T08:00:49.732Z,9.2
2022-08-28T08:02:50.468Z,9.2
2022-08-28T08:04:49.718Z,8.8
2022-08-28T08:06:53.313Z,8.6
2022-08-28T08:08:50.301Z,8.8
2022-08-28T08:10:50.108Z,12.3
2022-08-28T08:12:50.292Z,10.4
2022-08-28T08:14:50.064Z,10.4
2022-08-28T08:16:50.199Z,9.6
2022-08-28T08:18:50.066Z,9.8
2022-08-28T08:20:50.111Z,9.4
2022-08-28T08:22:50.092Z,9.4
2022-08-28T08:24:50.359Z,10.4
2022-08-28T08:26:58.855Z,10.1
2022-08-28T08:28:49.962Z,12.8
2022-08-28T08:30:49.914Z,8.9
2022-08-28T08:32:50.466Z,8.9
2022-08-28T08:34:50.078Z,8.8
2022-08-28T08:36:50.306Z,8.8
2022-08-28T08:38:50.299Z,7.4
2022-08-28T08:40:50.531Z,6.7
2022-08-28T08:42:49.706Z,6.7
2022-08-28T08:44:49.699Z,7.8
2022-08-28T08:46:49.947Z,8.9
2022-08-28T08:48:49.885Z,8.2
2022-08-28T08:50:49.892Z,8.4
2022-08-28T08:52:49.748Z,8.4
2022-08-28T08:54:49.796Z,13.2
2022-08-28T08:56:50.095Z,7.5
2022-08-28T08:58:50.083Z,8.7
2022-08-28T09:00:50.009Z,7.8
2022-08-28T09:02:49.902Z,7.8
2022-08-28T09:04:50.194Z,6.6
2022-08-28T09:06:50.005Z,6.6
2022-08-28T09:08:50.372Z,7.2
2022-08-28T09:10:49.835Z,8.0
2022-08-28T09:12:49.735Z,8.0
2022-08-28T09:14:49.792Z,6.1
2022-08-28T09:16:50.302Z,8.7
2022-08-28T09:18:50.381Z,6.8
2022-08-28T09:20:50.300Z,6.8
2022-08-28T09:22:50.157Z,6.8
2022-08-28T09:24:50.421Z,8.0
2022-08-28T09:26:49.667Z,5.9
2022-08-28T09:28:50.527Z,5.6
2022-08-28T09:30:50.290Z,5.6
2022-08-28T09:32:50.345Z,5.9
2022-08-28T09:34:49.851Z,6.4
2022-08-28T09:36:50.126Z,5.9
2022-08-28T09:38:50.138Z,5.8
2022-08-28T09:40:50.067Z,5.8
2022-08-28T09:42:50.122Z,6.4
2022-08-28T09:44:51.348Z,5.9
2022-08-28T09:46:50.037Z,7.2
2022-08-28T09:48:50.422Z,7.7
2022-08-28T09:50:50.515Z,7.7
2022-08-28T09:52:49.609Z,5.2
2022-08-28T09:54:49.556Z,5.4
2022-08-28T09:56:49.609Z,7.0
2022-08-28T09:58:50.575Z,6.9
2022-08-28T10:00:49.699Z,5.5
2022-08-28T10:02:49.635Z,5.5
2022-08-28T10:04:49.889Z,5.9
2022-08-28T10:06:50.043Z,5.1
2022-08-28T10:08:49.976Z,6.0
2022-08-28T10:10:49.751Z,6.0
2022-08-28T10:12:49.794Z,6.8
2022-08-28T10:14:49.838Z,6.5
2022-08-28T10:16:50.145Z,6.0
2022-08-28T10:18:49.790Z,6.0
2022-08-28T10:20:49.629Z,5.6
2022-08-28T10:22:49.825Z,7.3
2022-08-28T10:24:49.972Z,5.5
2022-08-28T10:26:50.279Z,7.0
2022-08-28T10:28:49.856Z,7.0
2022-08-28T10:30:50.369Z,7.3
2022-08-28T10:32:49.715Z,5.5
2022-08-28T10:34:50.372Z,8.1
2022-08-28T10:36:49.608Z,8.1
2022-08-28T10:38:53.150Z,6.5
2022-08-28T10:40:50.305Z,6.9
2022-08-28T10:42:50.192Z,7.8
2022-08-28T10:44:50.316Z,7.4
2022-08-28T10:46:49.887Z,5.2
2022-08-28T10:48:50.145Z,5.2
2022-08-28T10:50:50.001Z,7.2
2022-08-28T10:52:50.116Z,6.9
2022-08-28T10:54:49.721Z,6.6
2022-08-28T10:56:56.216Z,6.6
2022-08-28T10:58:50.200Z,5.7
2022-08-28T11:00:50.092Z,5.7
2022-08-28T11:02:50.531Z,5.8
2022-08-28T11:04:49.674Z,5.5
2022-08-28T11:06:49.910Z,6.6
2022-08-28T11:08:50.044Z,6.6
2022-08-28T11:10:50.031Z,5.4
2022-08-28T11:12:49.706Z,6.0
2022-08-28T11:14:50.494Z,5.0
2022-08-28T11:16:49.711Z,6.6
2022-08-28T11:18:50.414Z,6.6
2022-08-28T11:20:50.379Z,4.8
2022-08-28T11:22:50.257Z,4.8
2022-08-28T11:24:49.961Z,5.3
2022-08-28T11:26:50.080Z,5.3
2022-08-28T11:28:49.931Z,5.1
2022-08-28T11:30:49.878Z,5.9
2022-08-28T11:32:49.553Z,5.9
2022-08-28T11:34:50.054Z,7.1
2022-08-28T11:36:50.143Z,5.6
2022-08-28T11:38:49.977Z,5.6
2022-08-28T11:40:49.992Z,5.8
2022-08-28T11:42:49.616Z,5.4
2022-08-28T11:44:50.238Z,5.7
2022-08-28T11:46:49.670Z,5.7
2022-08-28T11:48:50.513Z,7.1
2022-08-28T11:50:50.448Z,5.7
2022-08-28T11:52:49.626Z,5.7
2022-08-28T11:54:50.386Z,5.7
2022-08-28T11:56:50.161Z,6.0
2022-08-28T11:58:50.384Z,5.3
2022-08-28T12:00:50.470Z,5.9
2022-08-28T12:02:49.870Z,7.2
2022-08-28T12:04:49.948Z,7.2
2022-08-28T12:06:49.987Z,5.9
2022-08-28T12:08:49.910Z,5.9
2022-08-28T12:10:49.915Z,5.6
2022-08-28T12:12:49.815Z,5.6
2022-08-28T12:14:50.214Z,5.4
2022-08-28T12:16:49.607Z,5.4
2022-08-28T12:18:49.658Z,5.3
2022-08-28T12:20:50.540Z,6.2
2022-08-28T12:22:49.634Z,6.2
2022-08-28T12:24:50.158Z,5.4
2022-08-28T12:26:50.471Z,5.2
2022-08-28T12:28:50.482Z,5.2
2022-08-28T12:30:50.279Z,5.4
2022-08-28T12:32:49.599Z,5.4
2022-08-28T12:34:50.412Z,5.5
2022-08-28T12:36:52.130Z,5.5
2022-08-28T12:38:50.107Z,4.9
2022-08-28T12:40:49.914Z,4.9
2022-08-28T12:42:54.519Z,4.9
2022-08-28T12:44:49.801Z,4.8
2022-08-28T12:46:49.588Z,4.8
2022-08-28T12:48:49.558Z,6.4
2022-08-28T12:50:49.633Z,4.7
2022-08-28T12:52:50.478Z,4.7
2022-08-28T12:54:50.376Z,4.7
2022-08-28T12:56:49.685Z,5.4
2022-08-28T12:58:50.479Z,4.6
2022-08-28T13:00:50.591Z,5.6
2022-08-28T13:02:50.819Z,5.6
2022-08-28T13:04:49.783Z,4.4
2022-08-28T13:06:50.157Z,5.2
2022-08-28T13:08:50.132Z,5.1
2022-08-28T13:10:49.889Z,4.9
2022-08-28T13:12:54.595Z,4.3
2022-08-28T13:14:49.631Z,4.3
2022-08-28T13:16:50.205Z,4.6
2022-08-28T13:18:50.040Z,4.6
2022-08-28T13:20:50.239Z,6.3
2022-08-28T13:22:50.800Z,6.3
2022-08-28T13:24:50.267Z,5.7
2022-08-28T13:26:49.572Z,4.9
2022-08-28T13:28:50.514Z,5.0
2022-08-28T13:30:49.882Z,6.7
2022-08-28T13:32:50.199Z,6.7
2022-08-28T13:34:49.572Z,7.1
2022-08-28T13:36:49.852Z,4.5
2022-08-28T13:38:49.638Z,4.6
2022-08-28T13:40:58.243Z,4.6
2022-08-28T13:42:50.284Z,4.5
2022-08-28T13:44:50.238Z,5.0
2022-08-28T13:46:50.224Z,5.0
2022-08-28T13:48:49.646Z,3.8
2022-08-28T13:50:50.496Z,3.8
2022-08-28T13:52:50.368Z,3.7
2022-08-28T13:54:49.726Z,3.7
2022-08-28T13:56:50.359Z,3.6
2022-08-28T13:58:57.434Z,3.6
2022-08-28T14:00:49.949Z,4.1
2022-08-28T14:02:49.626Z,4.2
2022-08-28T14:04:50.400Z,4.8
2022-08-28T14:06:49.722Z,4.8
2022-08-28T14:08:49.583Z,6.4
2022-08-28T14:10:50.465Z,6.2
2022-08-28T14:12:50.267Z,6.2
2022-08-28T14:14:50.325Z,5.9
2022-08-28T14:16:49.601Z,4.2
2022-08-28T14:18:49.851Z,6.0
2022-08-28T14:20:49.672Z,5.0
2022-08-28T14:22:49.785Z,5.0
2022-08-28T14:24:50.557Z,4.5
2022-08-28T14:26:49.846Z,6.2
2022-08-28T14:28:49.618Z,6.2
2022-08-28T14:30:49.573Z,4.4
2022-08-28T14:32:50.463Z,5.4
2022-08-28T14:34:49.779Z,5.4
2022-08-28T14:36:49.967Z,6.2
2022-08-28T14:38:52.764Z,6.5
2022-08-28T14:40:50.323Z,6.5
2022-08-28T14:42:49.669Z,5.4
2022-08-28T14:44:49.734Z,6.0
2022-08-28T14:46:49.897Z,5.8
2022-08-28T14:48:49.813Z,4.6
2022-08-28T14:50:49.773Z,4.6
2022-08-28T14:52:50.541Z,4.6
2022-08-28T14:54:49.803Z,4.3
2022-08-28T14:56:49.866Z,4.3
2022-08-28T14:58:49.695Z,4.7
2022-08-28T15:00:50.546Z,4.9
2022-08-28T15:02:50.031Z,5.2
2022-08-28T15:04:50.118Z,5.2
2022-08-28T15:06:50.161Z,4.9
2022-08-28T15:08:50.014Z,5.5
2022-08-28T15:10:49.829Z,5.5
2022-08-28T15:12:49.550Z,4.5
2022-08-28T15:14:55.095Z,4.6
2022-08-28T15:16:49.812Z,4.5
2022-08-28T15:18:50.028Z,4.5
2022-08-28T15:20:50.099Z,4.8
2022-08-28T15:22:49.971Z,4.6
2022-08-28T15:24:49.901Z,4.7
2022-08-28T15:26:50.136Z,4.7
2022-08-28T15:28:50.295Z,4.7
2022-08-28T15:30:50.334Z,4.1
2022-08-28T15:32:50.262Z,4.4
2022-08-28T15:34:49.672Z,5.8
2022-08-28T15:36:50.983Z,5.8
2022-08-28T15:38:49.924Z,6.4
2022-08-28T15:40:49.912Z,4.9
2022-08-28T15:42:49.994Z,5.2
2022-08-28T15:44:49.993Z,5.2
2022-08-28T15:46:50.175Z,5.2
2022-08-28T15:48:50.079Z,5.3
2022-08-28T15:50:50.036Z,5.6
2022-08-28T15:52:50.440Z,5.6
2022-08-28T15:54:50.056Z,6.4
2022-08-28T15:56:50.790Z,6.4
2022-08-28T15:58:50.527Z,4.9
2022-08-28T16:00:50.511Z,5.8
2022-08-28T16:02:50.002Z,6.4
2022-08-28T16:04:50.348Z,5.0
2022-08-28T16:06:50.353Z,5.0
2022-08-28T16:08:49.708Z,4.6
2022-08-28T16:10:49.550Z,4.4
2022-08-28T16:12:51.595Z,4.9
2022-08-28T16:14:49.559Z,4.9
2022-08-28T16:16:50.885Z,4.4
2022-08-28T16:18:49.771Z,4.6
2022-08-28T16:20:49.634Z,4.6
2022-08-28T16:22:50.341Z,4.7
2022-08-28T16:24:50.175Z,4.7
2022-08-28T16:26:50.481Z,4.6
2022-08-28T16:28:49.601Z,4.7
2022-08-28T16:30:49.699Z,4.6
2022-08-28T16:32:49.743Z,4.7
2022-08-28T16:34:50.327Z,5.9
2022-08-28T16:36:49.745Z,5.9
2022-08-28T16:38:49.639Z,4.8
2022-08-28T16:40:49.903Z,5.3
2022-08-28T16:42:51.917Z,5.1
2022-08-28T16:44:50.245Z,5.1
2022-08-28T16:46:50.403Z,6.4
2022-08-28T16:48:49.827Z,4.9
2022-08-28T16:50:49.743Z,4.9
2022-08-28T16:52:49.831Z,5.1
2022-08-28T16:54:49.616Z,5.1
2022-08-28T16:56:49.683Z,5.0
2022-08-28T16:58:50.398Z,4.7
2022-08-28T17:00:52.958Z,4.8
2022-08-28T17:02:50.385Z,5.0
2022-08-28T17:04:49.824Z,5.0
2022-08-28T17:06:50.195Z,5.0
2022-08-28T17:08:53.370Z,5.0
2022-08-28T17:10:50.058Z,4.7
2022-08-28T17:12:50.074Z,4.7
2022-08-28T17:14:49.920Z,5.8
2022-08-28T17:16:50.114Z,5.1
2022-08-28T17:18:52.059Z,4.9
2022-08-28T17:20:49.927Z,5.5
2022-08-28T17:22:49.737Z,5.5
2022-08-28T17:24:49.895Z,5.6
2022-08-28T17:26:50.215Z,4.8
2022-08-28T17:28:50.126Z,5.4
2022-08-28T17:30:50.071Z,5.4
2022-08-28T17:32:50.049Z,6.1
2022-08-28T17:34:50.395Z,5.2
2022-08-28T17:36:49.771Z,5.1
2022-08-28T17:38:49.754Z,5.5
2022-08-28T17:40:49.661Z,5.5
2022-08-28T17:42:50.484Z,4.7
2022-08-28T17:44:50.417Z,7.4
2022-08-28T17:46:49.843Z,5.0
2022-08-28T17:48:54.416Z,5.4
2022-08-28T17:50:50.269Z,5.4
2022-08-28T17:52:50.292Z,5.7
2022-08-28T17:54:49.604Z,6.0
2022-08-28T17:56:49.915Z,5.7
2022-08-28T17:58:49.932Z,6.6
2022-08-28T18:00:49.779Z,6.6
2022-08-28T18:02:49.720Z,5.8
2022-08-28T18:04:50.280Z,6.3
2022-08-28T18:06:49.835Z,8.5
2022-08-28T18:08:49.886Z,8.5
2022-08-28T18:10:49.688Z,6.3
2022-08-28T18:12:49.813Z,6.6
2022-08-28T18:14:49.694Z,6.0
2022-08-28T18:16:50.121Z,6.0
2022-08-28T18:18:50.503Z,6.0
2022-08-28T18:20:49.574Z,6.0
2022-08-28T18:22:50.535Z,6.0
2022-08-28T18:24:49.651Z,8.3
2022-08-28T18:26:49.892Z,7.8
2022-08-28T18:28:49.839Z,7.8
2022-08-28T18:30:49.797Z,7.1
2022-08-28T18:32:49.919Z,7.3
2022-08-28T18:34:49.640Z,6.6
2022-08-28T18:36:50.056Z,7.1
2022-08-28T18:38:50.030Z,7.1
2022-08-28T18:40:49.834Z,5.9
2022-08-28T18:42:49.677Z,6.9
2022-08-28T18:44:49.786Z,7.2
2022-08-28T18:46:50.092Z,8.3
2022-08-28T18:48:50.203Z,8.3
2022-08-28T18:50:50.137Z,7.1
2022-08-28T18:52:49.817Z,6.8
2022-08-28T18:54:49.898Z,6.7
2022-08-28T18:56:50.438Z,6.7
2022-08-28T18:58:49.704Z,6.8
2022-08-28T19:00:49.729Z,6.8
2022-08-28T19:02:49.874Z,6.5
2022-08-28T19:04:50.166Z,6.2
2022-08-28T19:06:50.533Z,6.2
2022-08-28T19:08:50.336Z,7.9
2022-08-28T19:10:50.483Z,8.4
2022-08-28T19:12:50.324Z,8.0
2022-08-28T19:14:50.047Z,8.6
2022-08-28T19:16:50.116Z,8.6
2022-08-28T19:18:52.779Z,8.6
2022-08-28T19:20:50.501Z,8.1
2022-08-28T19:22:49.674Z,8.6
2022-08-28T19:24:49.668Z,8.6
2022-08-28T19:26:50.026Z,8.9
2022-08-28T19:28:49.964Z,8.5
2022-08-28T19:30:49.802Z,8.4
2022-08-28T19:32:49.925Z,9.5
2022-08-28T19:34:50.093Z,9.5
2022-08-28T19:36:50.242Z,8.7
2022-08-28T19:38:50.179Z,8.9
2022-08-28T19:40:50.264Z,8.9
2022-08-28T19:42:50.232Z,9.1
2022-08-28T19:44:54.514Z,9.1
2022-08-28T19:46:50.217Z,9.1
2022-08-28T19:48:50.496Z,9.1
2022-08-28T19:50:50.431Z,9.2
2022-08-28T19:52:50.482Z,9.2
2022-08-28T19:54:50.184Z,9.4
2022-08-28T19:56:50.193Z,9.4
2022-08-28T19:58:50.065Z,12.1
2022-08-28T20:00:50.114Z,9.5
2022-08-28T20:02:50.023Z,9.5
2022-08-28T20:04:49.667Z,9.6
2022-08-28T20:06:49.790Z,9.5
2022-08-28T20:08:49.743Z,10.2
2022-08-28T20:10:49.801Z,10.0
2022-08-28T20:12:49.766Z,10.1
2022-08-28T20:14:49.631Z,10.1
2022-08-28T20:16:49.731Z,10.1
2022-08-28T20:18:49.595Z,10.2
2022-08-28T20:20:50.338Z,14.7
2022-08-28T20:22:52.267Z,11.3
2022-08-28T20:24:50.535Z,11.3
2022-08-28T20:26:49.651Z,12.2
2022-08-28T20:28:49.647Z,11.0
2022-08-28T20:30:50.105Z,10.5
2022-08-28T20:32:50.389Z,11.2
2022-08-28T20:34:49.622Z,11.2
2022-08-28T20:36:49.719Z,10.3
2022-08-28T20:38:49.767Z,10.5
2022-08-28T20:40:50.547Z,9.9
2022-08-28T20:42:49.682Z,9.9
2022-08-28T20:44:49.637Z,10.0
2022-08-28T20:46:51.328Z,10.7
2022-08-28T20:48:50.444Z,9.9
2022-08-28T20:50:49.660Z,9.9
2022-08-28T20:52:49.691Z,9.9
2022-08-28T20:54:49.740Z,12.1
2022-08-28T20:56:49.917Z,9.5
2022-08-28T20:58:49.980Z,10.0
2022-08-28T21:00:49.931Z,10.8
2022-08-28T21:02:49.774Z,10.8
2022-08-28T21:04:50.272Z,10.8
2022-08-28T21:06:49.730Z,9.5
2022-08-28T21:08:49.646Z,9.9
2022-08-28T21:10:50.500Z,9.7
2022-08-28T21:12:49.650Z,9.7
2022-08-28T21:14:51.597Z,10.0
2022-08-28T21:16:49.844Z,12.7
2022-08-28T21:19:12.096Z,9.3
2022-08-28T21:20:50.091Z,11.7
2022-08-28T21:22:49.995Z,11.7
2022-08-28T21:24:49.933Z,9.9
2022-08-28T21:26:50.191Z,9.9
2022-08-28T21:28:49.959Z,9.9
2022-08-28T21:30:49.858Z,10.2
2022-08-28T21:32:49.988Z,10.2
2022-08-28T21:34:50.320Z,10.0
2022-08-28T21:36:50.603Z,9.7
2022-08-28T21:38:50.531Z,10.2
2022-08-28T21:40:50.527Z,10.2
2022-08-28T21:42:50.477Z,10.7
2022-08-28T21:44:51.230Z,11.5
2022-08-28T21:46:50.287Z,9.8
2022-08-28T21:48:50.321Z,11.2
2022-08-28T21:50:50.125Z,11.2
2022-08-28T21:52:50.095Z,10.5
2022-08-28T21:54:50.013Z,11.1
2022-08-28T21:56:50.598Z,11.3
2022-08-28T21:58:49.742Z,11.3
2022-08-28T22:00:49.806Z,11.2
2022-08-28T22:02:49.907Z,11.0
2022-08-28T22:04:49.950Z,11.0
2022-08-28T22:06:50.164Z,10.7
2022-08-28T22:08:50.082Z,10.7
2022-08-28T22:10:50.198Z,11.0
2022-08-28T22:12:50.055Z,10.5
2022-08-28T22:14:49.892Z,11.8
2022-08-28T22:16:50.052Z,11.2
2022-08-28T22:18:49.566Z,11.2
2022-08-28T22:20:50.358Z,10.8
2022-08-28T22:22:49.868Z,12.1
2022-08-28T22:24:49.810Z,11.6
2022-08-28T22:26:50.346Z,12.4
2022-08-28T22:28:49.629Z,12.3
2022-08-28T22:30:49.565Z,12.3
2022-08-28T22:32:50.420Z,11.5
2022-08-28T22:34:49.840Z,10.9
2022-08-28T22:36:50.187Z,11.7
2022-08-28T22:38:53.087Z,12.1
2022-08-28T22:40:49.749Z,12.1
2022-08-28T22:42:49.708Z,11.7
2022-08-28T22:44:49.921Z,11.7
2022-08-28T22:46:50.036Z,11.8
2022-08-28T22:48:50.029Z,12.0
2022-08-28T22:50:49.972Z,12.0
2022-08-28T22:52:50.199Z,13.4
2022-08-28T22:54:50.862Z,13.4
2022-08-28T22:56:50.527Z,12.2
2022-08-28T22:58:50.327Z,12.6
2022-08-28T23:00:50.418Z,12.6
2022-08-28T23:02:50.464Z,12.6
2022-08-28T23:04:51.189Z,14.5
2022-08-28T23:06:50.246Z,13.0
2022-08-28T23:08:50.263Z,13.0
2022-08-28T23:10:58.835Z,14.2
2022-08-28T23:12:49.614Z,14.0
2022-08-28T23:14:50.474Z,13.1
2022-08-28T23:16:49.576Z,13.1
2022-08-28T23:19:07.059Z,13.4
2022-08-28T23:20:50.561Z,12.8
2022-08-28T23:22:49.851Z,14.0
2022-08-28T23:24:49.901Z,14.2
2022-08-28T23:26:50.394Z,14.2
2022-08-28T23:28:50.362Z,14.5
2022-08-28T23:30:50.197Z,14.7
2022-08-28T23:32:50.238Z,14.3
2022-08-28T23:34:50.539Z,14.2
2022-08-28T23:36:50.056Z,14.2
2022-08-28T23:38:49.903Z,13.2
2022-08-28T23:40:50.194Z,15.4
2022-08-28T23:42:49.734Z,14.8
2022-08-28T23:44:49.661Z,14.9
2022-08-28T23:46:50.156Z,14.9
2022-08-28T23:48:50.010Z,14.7
2022-08-28T23:50:50.423Z,14.4
2022-08-28T23:52:50.408Z,14.5
2022-08-28T23:54:50.363Z,14.3
2022-08-28T23:56:50.462Z,14.3
2022-08-28T23:58:53.231Z,16.1
